• Join FlightAware (Why Join?)
  • Login
  • US Flag 
01:40AM EDT


 

Airport Tracker/Info


-or-


 

Live Flight TrackerFlight Track Log ✈ DAL403 ✈ 09-Jul-2013 ✈ KDCA - KATL

Flight Track Log - Related Links

Times and Time Zones

All times are in EDT time to prevent confusion due to time zone crossing. See the DAL403 flight status page for this flight to view local times or setup timezone preferences in your user account.

Time Position Orientation Groundspeed Altitude Reporting Facility
EDT Latitude Longitude Course Direction KTS MPH feet Rate Location/Type
06:14AM 38.8000 -77.0333 236° Southwest 196 226 1,500  Level Potomac TRACON
06:15AM 38.7333 -77.0667 201° Southwest 287 330 5,200 3,360 Climbing Potomac TRACON
06:16AM 38.6336 -77.4370 234° Southwest  Level FlightAware Approximate
06:16AM 38.7167 -77.1500 256° West 279 321 8,300  Level Potomac TRACON
06:17AM 38.5752 -77.5830 237° Southwest  Level FlightAware Approximate
06:17AM 38.7000 -77.2500 258° West 285 328 10,900  Level Potomac TRACON
06:18AM 38.5000 -77.7166 233° Southwest  Level FlightAware Approximate
06:18AM 38.6667 -77.3667 250° West 367 422 11,900  Level Potomac TRACON
06:19AM 38.4242 -77.8481 236° Southwest  Level FlightAware Approximate
06:19AM 38.5889 -77.5439 241° Southwest 410 472 15,600  Level Washington Center
06:20AM 38.5328 -77.6672 240° Southwest 410 472 17,900 1,800 Climbing Washington Center
06:21AM 38.4850 -77.7667 238° Southwest 415 478 19,300 1,440 Climbing Washington Center
06:22AM 38.4158 -77.9025 237° Southwest 415 478 20,800 1,440 Climbing Washington Center
06:23AM 38.3464 -78.0353 236° Southwest 435 501 22,200 1,320 Climbing Washington Center
06:24AM 38.2750 -78.1706 236° Southwest 449 517 23,600 1,200 Climbing Washington Center
06:25AM 38.2031 -78.3081 236° Southwest 462 532 24,700 1,200 Climbing Washington Center
06:26AM 38.1311 -78.4453 236° Southwest 470 541 26,100 1,080 Climbing Washington Center
06:27AM 38.0794 -78.5936 246° West 467 537 27,000 660 Climbing Washington Center
06:28AM 38.0275 -78.7472 247° West 467 537 27,500 1,260 Climbing Washington Center
06:29AM 37.9708 -78.9108 246° West 472 543 29,600 1,680 Climbing Washington Center
06:30AM 37.9208 -79.0561 246° West 472 543 30,900 1,200 Climbing Washington Center
06:31AM 37.8525 -79.1869 237° Southwest 464 534 32,000 540 Climbing Washington Center
06:32AM 37.7722 -79.2908 226° Southwest 455 524 32,000  Level Washington Center
06:33AM 37.6783 -79.4200 227° Southwest 461 531 32,000  Level Washington Center
06:34AM 37.5933 -79.5339 227° Southwest 461 531 32,000  Level Washington Center
06:35AM 37.5081 -79.6525 228° Southwest 461 531 32,000  Level Washington Center
06:36AM 37.4269 -79.7631 227° Southwest 466 536 32,000  Level Washington Center
06:37AM 37.3417 -79.8786 227° Southwest 466 536 32,000  Level Washington Center
06:40AM 37.1253 -80.1681 227° Southwest 455 524 32,000  Level Atlanta Center
06:41AM 37.0392 -80.2814 226° Southwest 455 524 32,000  Level Atlanta Center
06:42AM 36.9550 -80.3944 227° Southwest 455 524 32,000  Level Atlanta Center
06:43AM 36.8689 -80.5128 228° Southwest 460 529 32,000  Level Atlanta Center
06:44AM 36.7744 -80.6386 227° Southwest 460 529 32,000  Level Atlanta Center
06:45AM 36.6981 -80.7403 227° Southwest 460 529 32,000  Level Atlanta Center
06:46AM 36.6033 -80.8683 227° Southwest 455 524 32,000  Level Atlanta Center
06:47AM 36.5167 -80.9828 227° Southwest 460 529 32,000  Level Atlanta Center
06:48AM 36.4317 -81.0944 227° Southwest 454 522 32,000  Level Atlanta Center
06:49AM 36.3447 -81.2086 227° Southwest 460 529 32,000  Level Atlanta Center
06:50AM 36.2575 -81.3222 226° Southwest 460 529 32,000  Level Atlanta Center
06:51AM 36.1706 -81.4383 227° Southwest 465 535 32,000  Level Atlanta Center
06:52AM 36.0831 -81.5517 226° Southwest 460 529 32,000  Level Atlanta Center
06:53AM 35.9978 -81.6619 226° Southwest 454 522 32,000  Level Atlanta Center
06:54AM 35.9122 -81.7747 227° Southwest 459 528 32,000  Level Atlanta Center
06:55AM 35.8247 -81.8900 227° Southwest 459 528 32,000  Level Atlanta Center
06:56AM 35.7328 -82.0025 225° Southwest 459 528 32,000  Level Atlanta Center
06:57AM 35.6489 -82.1119 227° Southwest 452 520 32,000  Level Atlanta Center
06:58AM 35.5589 -82.2236 225° Southwest 458 527 32,000 -120 Level Atlanta Center
06:59AM 35.4728 -82.3328 226° Southwest 458 527 31,800 -660 Descending Atlanta Center
07:00AM 35.3781 -82.4367 222° Southwest 458 527 30,700 -1,080 Descending Atlanta Center
07:01AM 35.2981 -82.5297 224° Southwest 453 521 29,700 -1,440 Descending Atlanta Center
07:02AM 35.1928 -82.6436 221° Southwest 453 521 27,900 -1,680 Descending Atlanta Center
07:03AM 35.0958 -82.7467 221° Southwest 465 535 26,400 -1,200 Descending Atlanta Center
07:04AM 34.9989 -82.8547 222° Southwest 471 542 25,600 -960 Descending Atlanta Center
07:05AM 34.9019 -82.9547 220° Southwest 466 536 24,500 -1,020 Descending Atlanta Center
07:06AM 34.8089 -83.0622 224° Southwest 459 528 23,600 -840 Descending Atlanta Center
07:07AM 34.7178 -83.1644 223° Southwest 459 528 22,900 -720 Descending Atlanta Center
07:08AM 34.6244 -83.2664 222° Southwest 459 528 22,200 -720 Descending Atlanta Center
07:09AM 34.5311 -83.3681 222° Southwest 453 521 21,500 -720 Descending Atlanta Center
07:10AM 34.4442 -83.4619 222° Southwest 442 509 20,800 -1,680 Descending Atlanta Center
07:11AM 34.3569 -83.5556 222° Southwest 429 494 18,200 -2,460 Descending Atlanta Center
07:12AM 34.2736 -83.6442 221° Southwest 414 476 15,900 -2,400 Descending Atlanta Center
07:13AM 34.1947 -83.7300 222° Southwest 403 464 13,400 -1,920 Descending Atlanta Center
07:14AM 34.1281 -83.8031 222° Southwest 380 437 12,100 -840 Descending Atlanta Center
07:15AM 34.0614 -83.8733 221° Southwest 344 396 11,800 -720 Descending Atlanta Center
07:16AM 34.0167 -83.9333 228° Southwest 291 335 10,900 -1,200 Descending Atlanta TRACON
07:17AM 33.9500 -83.9833 212° Southwest 276 318 9,700 -1,020 Descending Atlanta TRACON
07:18AM 33.8833 -84.0000 192° South 254 292 9,000 -420 Descending Atlanta TRACON
07:19AM 33.8167 -84.0000 180° South 244 281 9,000 -360 Level Atlanta TRACON
07:20AM 33.7500 -84.0167 192° South 239 275 8,300 -1,080 Descending Atlanta TRACON
07:20AM 33.7000 -84.0333 195° South 230 265 7,000 -1,260 Descending Atlanta TRACON
07:21AM 33.6500 -84.0833 220° Southwest 218 251 6,000 -900 Descending Atlanta TRACON
07:22AM 33.6500 -84.1500 270° West 223 257 5,400 -720 Descending Atlanta TRACON